createdAt,value
2022-11-20T00:00:11.021Z,7
2022-11-20T00:01:13.675Z,6
2022-11-20T00:02:16.391Z,5
2022-11-20T00:03:19.242Z,6
2022-11-20T00:04:21.919Z,6
2022-11-20T00:05:24.787Z,7
2022-11-20T00:06:27.435Z,6
2022-11-20T00:07:30.198Z,7
2022-11-20T00:08:33.015Z,6
2022-11-20T00:09:35.772Z,7
2022-11-20T00:10:38.403Z,7
2022-11-20T00:11:41.069Z,7
2022-11-20T00:12:43.709Z,7
2022-11-20T00:13:46.314Z,7
2022-11-20T00:14:48.995Z,6
2022-11-20T00:15:51.648Z,7
2022-11-20T00:16:54.308Z,7
2022-11-20T00:17:56.994Z,6
2022-11-20T00:18:59.683Z,6
2022-11-20T00:20:02.812Z,7
2022-11-20T00:21:05.495Z,7
2022-11-20T00:22:08.741Z,7
2022-11-20T00:23:11.395Z,7
2022-11-20T00:24:14.024Z,7
2022-11-20T00:25:16.708Z,7
2022-11-20T00:26:19.419Z,6
2022-11-20T00:27:22.090Z,7
2022-11-20T00:28:24.708Z,7
2022-11-20T00:29:27.355Z,7
2022-11-20T00:30:29.988Z,7
2022-11-20T00:31:32.623Z,7
2022-11-20T00:32:35.285Z,7
2022-11-20T00:33:38.064Z,7
2022-11-20T00:34:40.732Z,7
2022-11-20T00:35:43.451Z,7
2022-11-20T00:36:46.409Z,7
2022-11-20T00:37:49.021Z,7
2022-11-20T00:38:51.671Z,7
2022-11-20T00:39:54.369Z,7
2022-11-20T00:40:57.038Z,7
2022-11-20T00:41:59.695Z,7
2022-11-20T00:43:02.327Z,7
2022-11-20T00:44:04.972Z,8
2022-11-20T00:45:07.635Z,7
2022-11-20T00:46:10.236Z,7
2022-11-20T00:47:12.889Z,7
2022-11-20T00:48:15.541Z,7
2022-11-20T00:49:18.739Z,7
2022-11-20T00:50:22.855Z,7
2022-11-20T00:51:25.673Z,7
2022-11-20T00:52:28.351Z,7
2022-11-20T00:53:30.994Z,7
2022-11-20T00:54:33.619Z,9
2022-11-20T00:55:36.267Z,7
2022-11-20T00:56:38.930Z,8
2022-11-20T00:57:41.554Z,8
2022-11-20T00:58:44.198Z,8
2022-11-20T00:59:46.831Z,8
2022-11-20T01:00:49.504Z,8
2022-11-20T01:01:52.282Z,7
2022-11-20T01:02:54.905Z,7
2022-11-20T01:03:57.595Z,8
2022-11-20T01:05:00.229Z,8
2022-11-20T01:06:02.862Z,8
2022-11-20T01:07:05.889Z,8
2022-11-20T01:08:08.635Z,7
2022-11-20T01:09:11.286Z,7
2022-11-20T01:10:13.921Z,8
2022-11-20T01:11:16.561Z,8
2022-11-20T01:12:19.222Z,8
2022-11-20T01:13:25.954Z,8
2022-11-20T01:14:28.361Z,7
2022-11-20T01:15:31.003Z,7
2022-11-20T01:16:33.684Z,7
2022-11-20T01:17:36.349Z,7
2022-11-20T01:18:38.982Z,10
2022-11-20T01:19:41.641Z,10
2022-11-20T01:20:45.297Z,8
2022-11-20T01:21:47.864Z,8
2022-11-20T01:22:50.508Z,9
2022-11-20T01:23:53.216Z,9
2022-11-20T01:24:55.820Z,8
2022-11-20T01:25:58.491Z,8
2022-11-20T01:27:02.151Z,9
2022-11-20T01:28:04.785Z,9
2022-11-20T01:29:07.428Z,8
2022-11-20T01:30:10.121Z,8
2022-11-20T01:31:13.646Z,8
2022-11-20T01:32:16.703Z,8
2022-11-20T01:33:19.361Z,10
2022-11-20T01:34:22.010Z,9
2022-11-20T01:35:24.677Z,7
2022-11-20T01:36:27.327Z,8
2022-11-20T01:37:29.998Z,8
2022-11-20T01:38:32.635Z,10
2022-11-20T01:39:35.287Z,8
2022-11-20T01:40:37.968Z,8
2022-11-20T01:41:40.638Z,8
2022-11-20T01:42:43.312Z,7
2022-11-20T01:43:45.918Z,11
2022-11-20T01:44:48.512Z,11
2022-11-20T01:45:51.148Z,9
2022-11-20T01:46:53.778Z,8
2022-11-20T01:47:56.425Z,8
2022-11-20T01:48:59.022Z,8
2022-11-20T01:50:01.707Z,7
2022-11-20T01:51:04.360Z,7
2022-11-20T01:52:06.933Z,7
2022-11-20T01:53:09.592Z,7
2022-11-20T01:54:12.289Z,7
2022-11-20T01:55:15.231Z,8
2022-11-20T01:56:17.840Z,10
2022-11-20T01:57:20.478Z,9
2022-11-20T01:58:23.103Z,8
2022-11-20T01:59:25.783Z,8
2022-11-20T02:00:28.498Z,8
2022-11-20T02:01:31.282Z,7
2022-11-20T02:02:34.148Z,8
2022-11-20T02:03:36.828Z,7
2022-11-20T02:04:39.507Z,8
2022-11-20T02:05:42.127Z,9
2022-11-20T02:06:44.794Z,7
2022-11-20T02:07:47.662Z,8
2022-11-20T02:08:50.281Z,7
2022-11-20T02:09:58.852Z,7
2022-11-20T02:11:01.332Z,7
2022-11-20T02:12:03.927Z,7
2022-11-20T02:13:06.593Z,7
2022-11-20T02:14:09.202Z,7
2022-11-20T02:15:11.821Z,7
2022-11-20T02:16:14.495Z,7
2022-11-20T02:17:17.153Z,7
2022-11-20T02:18:19.890Z,7
2022-11-20T02:19:23.174Z,7
2022-11-20T02:20:26.301Z,7
2022-11-20T02:21:28.943Z,7
2022-11-20T02:22:31.577Z,7
2022-11-20T02:23:34.242Z,7
2022-11-20T02:24:36.866Z,6
2022-11-20T02:25:39.548Z,6
2022-11-20T02:26:42.168Z,7
2022-11-20T02:27:44.835Z,6
2022-11-20T02:28:47.469Z,6
2022-11-20T02:29:50.123Z,7
2022-11-20T02:30:53.165Z,6
2022-11-20T02:31:55.771Z,7
2022-11-20T02:32:58.402Z,7
2022-11-20T02:34:01.055Z,7
2022-11-20T02:35:03.703Z,6
2022-11-20T02:36:06.302Z,7
2022-11-20T02:37:08.961Z,6
2022-11-20T02:38:13.105Z,6
2022-11-20T02:39:15.640Z,6
2022-11-20T02:40:18.769Z,7
2022-11-20T02:41:21.335Z,6
2022-11-20T02:42:24.978Z,6
2022-11-20T02:43:27.581Z,6
2022-11-20T02:44:30.229Z,6
2022-11-20T02:45:32.869Z,7
2022-11-20T02:46:35.523Z,7
2022-11-20T02:47:38.234Z,7
2022-11-20T02:48:40.879Z,6
2022-11-20T02:49:44.142Z,6
2022-11-20T02:50:46.799Z,6
2022-11-20T02:51:49.443Z,7
2022-11-20T02:52:52.582Z,7
2022-11-20T02:53:55.182Z,7
2022-11-20T02:54:57.797Z,6
2022-11-20T02:56:00.460Z,6
2022-11-20T02:57:03.097Z,6
2022-11-20T02:58:05.793Z,6
2022-11-20T02:59:08.648Z,7
2022-11-20T03:00:11.277Z,6
2022-11-20T03:01:14.017Z,6
2022-11-20T03:02:16.815Z,6
2022-11-20T03:03:19.493Z,6
2022-11-20T03:04:22.110Z,6
2022-11-20T03:05:24.805Z,6
2022-11-20T03:06:27.458Z,6
2022-11-20T03:07:30.213Z,6
2022-11-20T03:08:32.987Z,6
2022-11-20T03:09:35.626Z,6
2022-11-20T03:10:38.276Z,6
2022-11-20T03:11:40.871Z,6
2022-11-20T03:12:43.487Z,6
2022-11-20T03:13:46.138Z,6
2022-11-20T03:14:53.367Z,6
2022-11-20T03:15:55.914Z,5
2022-11-20T03:16:58.558Z,6
2022-11-20T03:18:01.200Z,5
2022-11-20T03:19:03.852Z,6
2022-11-20T03:20:06.500Z,5
2022-11-20T03:21:09.139Z,5
2022-11-20T03:22:11.807Z,5
2022-11-20T03:23:14.459Z,7
2022-11-20T03:24:17.078Z,6
2022-11-20T03:25:19.714Z,5
2022-11-20T03:26:22.410Z,7
2022-11-20T03:27:25.161Z,7
2022-11-20T03:28:27.819Z,7
2022-11-20T03:29:30.436Z,6
2022-11-20T03:30:33.113Z,5
2022-11-20T03:31:35.764Z,6
2022-11-20T03:32:38.388Z,6
2022-11-20T03:33:41.031Z,7
2022-11-20T03:34:43.710Z,6
2022-11-20T03:35:46.352Z,7
2022-11-20T03:36:49.005Z,5
2022-11-20T03:37:51.633Z,6
2022-11-20T03:38:54.282Z,6
2022-11-20T03:39:56.957Z,6
2022-11-20T03:40:59.605Z,5
2022-11-20T03:42:03.245Z,6
2022-11-20T03:43:06.165Z,6
2022-11-20T03:44:09.783Z,6
2022-11-20T03:45:12.425Z,6
2022-11-20T03:46:15.017Z,6
2022-11-20T03:47:17.694Z,5
2022-11-20T03:48:20.337Z,6
2022-11-20T03:49:23.636Z,6
2022-11-20T03:50:37.160Z,6
2022-11-20T03:51:39.364Z,6
2022-11-20T03:52:42.562Z,5
2022-11-20T03:53:45.181Z,7
2022-11-20T03:54:47.839Z,7
2022-11-20T03:55:50.451Z,6
2022-11-20T03:56:53.082Z,6
2022-11-20T03:57:55.709Z,6
2022-11-20T03:58:58.350Z,6
2022-11-20T04:00:01.549Z,6
2022-11-20T04:01:04.187Z,7
2022-11-20T04:02:07.199Z,7
2022-11-20T04:03:09.924Z,7
2022-11-20T04:04:12.558Z,7
2022-11-20T04:05:15.183Z,7
2022-11-20T04:06:17.821Z,7
2022-11-20T04:07:20.771Z,7
2022-11-20T04:08:23.700Z,7
2022-11-20T04:09:26.311Z,7
2022-11-20T04:10:28.954Z,7
2022-11-20T04:11:31.596Z,7
2022-11-20T04:12:34.277Z,7
2022-11-20T04:13:36.893Z,7
2022-11-20T04:14:39.585Z,7
2022-11-20T04:15:42.238Z,8
2022-11-20T04:16:45.184Z,8
2022-11-20T04:17:47.840Z,7
2022-11-20T04:18:50.503Z,7
2022-11-20T04:19:53.135Z,7
2022-11-20T04:20:55.794Z,7
2022-11-20T04:21:58.438Z,7
2022-11-20T04:23:02.048Z,7
2022-11-20T04:24:04.707Z,7
2022-11-20T04:25:07.566Z,8
2022-11-20T04:26:10.230Z,7
2022-11-20T04:27:13.080Z,9
2022-11-20T04:28:15.735Z,8
2022-11-20T04:29:18.788Z,8
2022-11-20T04:30:22.494Z,8
2022-11-20T04:31:26.642Z,8
2022-11-20T04:32:29.176Z,10
2022-11-20T04:33:34.640Z,8
2022-11-20T04:34:37.096Z,8
2022-11-20T04:35:39.789Z,7
2022-11-20T04:36:42.417Z,7
2022-11-20T04:37:45.100Z,8
2022-11-20T04:38:56.685Z,9
2022-11-20T04:40:00.158Z,8
2022-11-20T04:41:02.818Z,7
2022-11-20T04:42:05.443Z,9
2022-11-20T04:43:08.081Z,8
2022-11-20T04:44:10.717Z,8
2022-11-20T04:45:13.352Z,8
2022-11-20T04:46:16.030Z,8
2022-11-20T04:47:18.702Z,8
2022-11-20T04:48:21.320Z,8
2022-11-20T04:49:24.814Z,9
2022-11-20T04:50:28.066Z,9
2022-11-20T04:51:30.679Z,9
2022-11-20T04:52:33.361Z,9
2022-11-20T04:53:35.968Z,10
2022-11-20T04:54:38.612Z,9
2022-11-20T04:55:41.295Z,8
2022-11-20T04:56:44.935Z,8
2022-11-20T04:57:47.484Z,10
2022-11-20T04:58:50.116Z,10
2022-11-20T04:59:52.971Z,8
2022-11-20T05:00:56.019Z,8
2022-11-20T05:01:58.813Z,10
2022-11-20T05:03:01.591Z,9
2022-11-20T05:04:04.244Z,8
2022-11-20T05:05:06.860Z,10
2022-11-20T05:06:09.735Z,8
2022-11-20T05:07:12.436Z,8
2022-11-20T05:08:15.156Z,11
2022-11-20T05:09:18.023Z,9
2022-11-20T05:10:20.717Z,10
2022-11-20T05:11:23.480Z,10
2022-11-20T05:12:26.746Z,9
2022-11-20T05:13:29.616Z,8
2022-11-20T05:14:32.591Z,7
2022-11-20T05:15:35.451Z,8
2022-11-20T05:16:38.221Z,8
2022-11-20T05:17:40.897Z,7
2022-11-20T05:18:43.556Z,7
2022-11-20T05:19:53.056Z,8
2022-11-20T05:20:55.574Z,7
2022-11-20T05:21:58.187Z,7
2022-11-20T05:23:01.448Z,7
2022-11-20T05:24:04.033Z,7
2022-11-20T05:25:06.673Z,7
2022-11-20T05:26:09.292Z,7
2022-11-20T05:27:11.927Z,7
2022-11-20T05:28:14.601Z,7
2022-11-20T05:29:17.260Z,7
2022-11-20T05:30:19.876Z,7
2022-11-20T05:31:28.413Z,7
2022-11-20T05:32:30.873Z,8
2022-11-20T05:33:34.997Z,8
2022-11-20T05:34:37.920Z,7
2022-11-20T05:35:40.485Z,7
2022-11-20T05:36:43.150Z,7
2022-11-20T05:37:45.753Z,8
2022-11-20T05:38:51.602Z,7
2022-11-20T05:40:02.522Z,8
2022-11-20T05:41:05.134Z,8
2022-11-20T05:42:07.767Z,7
2022-11-20T05:43:10.429Z,7
2022-11-20T05:44:13.633Z,8
2022-11-20T05:45:16.283Z,7
2022-11-20T05:46:28.090Z,7
2022-11-20T05:47:34.188Z,7
2022-11-20T05:48:36.803Z,7
2022-11-20T05:49:39.987Z,7
2022-11-20T05:50:42.576Z,7
2022-11-20T05:51:45.236Z,7
2022-11-20T05:52:47.846Z,6
2022-11-20T05:53:50.481Z,6
2022-11-20T05:54:53.105Z,7
2022-11-20T05:55:55.755Z,6
2022-11-20T05:56:58.402Z,6
2022-11-20T05:58:01.025Z,6
2022-11-20T05:59:03.669Z,6
2022-11-20T06:00:06.324Z,6
2022-11-20T06:01:08.948Z,6
2022-11-20T06:02:11.814Z,7
2022-11-20T06:03:15.355Z,7
2022-11-20T06:04:17.978Z,7
2022-11-20T06:05:20.881Z,7
2022-11-20T06:06:23.502Z,6
2022-11-20T06:07:26.204Z,7
2022-11-20T06:08:29.003Z,7
2022-11-20T06:09:31.805Z,7
2022-11-20T06:10:34.614Z,7
2022-11-20T06:11:37.211Z,7
2022-11-20T06:12:39.867Z,7
2022-11-20T06:13:43.091Z,6
2022-11-20T06:14:45.700Z,7
2022-11-20T06:15:48.344Z,7
2022-11-20T06:16:51.214Z,6
2022-11-20T06:17:53.876Z,7
2022-11-20T06:18:56.521Z,7
2022-11-20T06:19:59.141Z,7
2022-11-20T06:21:01.832Z,7
2022-11-20T06:22:04.490Z,7
2022-11-20T06:23:07.097Z,7
2022-11-20T06:24:09.733Z,6
2022-11-20T06:25:12.431Z,7
2022-11-20T06:26:15.058Z,7
2022-11-20T06:27:17.697Z,7
2022-11-20T06:28:20.314Z,6
2022-11-20T06:29:23.573Z,6
2022-11-20T06:30:27.634Z,7
2022-11-20T06:31:30.257Z,6
2022-11-20T06:32:32.898Z,6
2022-11-20T06:33:35.557Z,6
2022-11-20T06:34:38.136Z,6
2022-11-20T06:35:40.849Z,5
2022-11-20T06:36:43.474Z,6
2022-11-20T06:37:46.100Z,4
2022-11-20T06:38:48.741Z,6
2022-11-20T06:39:51.380Z,5
2022-11-20T06:40:54.061Z,5
2022-11-20T06:41:59.426Z,5
2022-11-20T06:43:01.979Z,5
2022-11-20T06:44:04.633Z,5
2022-11-20T06:45:07.301Z,5
2022-11-20T06:46:09.977Z,4
2022-11-20T06:47:12.630Z,5
2022-11-20T06:48:15.285Z,4
2022-11-20T06:49:17.980Z,4
2022-11-20T06:50:20.619Z,4
2022-11-20T06:51:23.273Z,5
2022-11-20T06:52:25.944Z,4
2022-11-20T06:53:28.577Z,5
2022-11-20T06:54:31.227Z,5
2022-11-20T06:55:33.882Z,4
2022-11-20T06:56:36.532Z,5
2022-11-20T06:57:39.213Z,5
2022-11-20T06:58:41.899Z,4
2022-11-20T06:59:44.598Z,4
2022-11-20T07:00:47.498Z,5
2022-11-20T07:01:50.413Z,4
2022-11-20T07:02:53.057Z,4
2022-11-20T07:03:55.702Z,4
2022-11-20T07:04:58.348Z,4
2022-11-20T07:06:00.969Z,4
2022-11-20T07:07:03.718Z,4
2022-11-20T07:08:06.498Z,4
2022-11-20T07:09:13.074Z,5
2022-11-20T07:10:15.523Z,4
2022-11-20T07:11:18.146Z,5
2022-11-20T07:12:20.821Z,5
2022-11-20T07:13:23.458Z,5
2022-11-20T07:14:26.138Z,5
2022-11-20T07:15:28.768Z,7
2022-11-20T07:16:31.404Z,10
2022-11-20T07:17:34.046Z,10
2022-11-20T07:18:36.750Z,7
2022-11-20T07:19:39.391Z,5
2022-11-20T07:20:42.016Z,4
2022-11-20T07:21:44.673Z,4
2022-11-20T07:22:47.318Z,5
2022-11-20T07:23:50.034Z,4
2022-11-20T07:24:52.663Z,4
2022-11-20T07:25:55.309Z,4
2022-11-20T07:26:57.949Z,4
2022-11-20T07:28:00.600Z,4
2022-11-20T07:29:03.235Z,4
2022-11-20T07:30:05.876Z,4
2022-11-20T07:31:08.471Z,5
2022-11-20T07:32:11.233Z,4
2022-11-20T07:33:13.861Z,5
2022-11-20T07:34:16.498Z,5
2022-11-20T07:35:19.156Z,4
2022-11-20T07:36:21.798Z,4
2022-11-20T07:37:24.538Z,4
2022-11-20T07:38:27.185Z,4
2022-11-20T07:39:29.860Z,7
2022-11-20T07:40:32.472Z,5
2022-11-20T07:41:35.109Z,5
2022-11-20T07:42:37.803Z,4
2022-11-20T07:43:41.951Z,4
2022-11-20T07:44:44.481Z,4
2022-11-20T07:45:47.155Z,4
2022-11-20T07:46:49.806Z,4
2022-11-20T07:47:52.435Z,6
2022-11-20T07:48:55.445Z,5
2022-11-20T07:49:58.222Z,4
2022-11-20T07:51:00.837Z,5
2022-11-20T07:52:05.603Z,5
2022-11-20T07:53:08.013Z,6
2022-11-20T07:54:10.633Z,6
2022-11-20T07:55:13.332Z,6
2022-11-20T07:56:15.984Z,5
2022-11-20T07:57:18.631Z,6
2022-11-20T07:58:21.205Z,6
2022-11-20T07:59:24.436Z,6
2022-11-20T08:00:27.626Z,8
2022-11-20T08:01:30.737Z,10
2022-11-20T08:02:33.399Z,16
2022-11-20T08:03:36.078Z,14
2022-11-20T08:04:38.680Z,14
2022-11-20T08:05:41.314Z,15
2022-11-20T08:06:43.975Z,13
2022-11-20T08:07:46.789Z,10
2022-11-20T08:08:49.615Z,10
2022-11-20T08:09:52.277Z,10
2022-11-20T08:10:54.929Z,9
2022-11-20T08:11:57.573Z,11
2022-11-20T08:13:00.243Z,10
2022-11-20T08:14:02.914Z,10
2022-11-20T08:15:13.233Z,10
2022-11-20T08:16:15.810Z,11
2022-11-20T08:17:18.454Z,13
2022-11-20T08:18:33.515Z,10
2022-11-20T08:19:35.402Z,9
2022-11-20T08:20:38.016Z,11
2022-11-20T08:21:40.640Z,11
2022-11-20T08:22:43.292Z,10
2022-11-20T08:23:45.914Z,11
2022-11-20T08:24:48.572Z,16
2022-11-20T08:25:51.272Z,17
2022-11-20T08:26:53.888Z,19
2022-11-20T08:28:01.370Z,17
2022-11-20T08:29:14.217Z,13
2022-11-20T08:30:16.782Z,13
2022-11-20T08:31:19.404Z,14
2022-11-20T08:32:25.550Z,16
2022-11-20T08:33:31.452Z,14
2022-11-20T08:34:33.821Z,16
2022-11-20T08:35:36.412Z,14
2022-11-20T08:36:39.623Z,17
2022-11-20T08:37:42.439Z,17
2022-11-20T08:38:45.038Z,13
2022-11-20T08:39:47.778Z,11
2022-11-20T08:40:50.391Z,10
2022-11-20T08:41:53.039Z,11
2022-11-20T08:42:55.653Z,10
2022-11-20T08:43:58.331Z,9
2022-11-20T08:45:00.924Z,8
2022-11-20T08:46:03.570Z,10
2022-11-20T08:47:06.204Z,10
2022-11-20T08:48:08.854Z,10
2022-11-20T08:49:11.537Z,10
2022-11-20T08:50:14.191Z,10
2022-11-20T08:51:16.921Z,11
2022-11-20T08:52:19.585Z,17
2022-11-20T08:53:22.277Z,16
2022-11-20T08:54:24.852Z,16
2022-11-20T08:55:29.078Z,13
2022-11-20T08:56:32.194Z,13
2022-11-20T08:57:37.747Z,8
2022-11-20T08:59:10.265Z,9
2022-11-20T09:00:07.329Z,8
2022-11-20T09:01:10.587Z,7
2022-11-20T09:02:13.278Z,8
2022-11-20T09:03:18.724Z,8
2022-11-20T09:04:21.155Z,8
2022-11-20T09:05:23.839Z,8
2022-11-20T09:06:26.489Z,8
2022-11-20T09:07:29.204Z,7
2022-11-20T09:08:32.013Z,10
2022-11-20T09:09:34.673Z,10
2022-11-20T09:10:37.336Z,9
2022-11-20T09:11:39.974Z,8
2022-11-20T09:12:42.621Z,8
2022-11-20T09:13:45.242Z,8
2022-11-20T09:14:55.029Z,6
2022-11-20T09:15:57.396Z,7
2022-11-20T09:17:00.003Z,8
2022-11-20T09:18:02.652Z,8
2022-11-20T09:20:27.111Z,6
2022-11-20T09:21:29.677Z,7
2022-11-20T09:22:32.264Z,7
2022-11-20T09:23:34.855Z,7
2022-11-20T09:24:37.530Z,7
2022-11-20T09:25:40.194Z,7
2022-11-20T09:26:42.823Z,7
2022-11-20T09:27:45.459Z,8
2022-11-20T09:28:56.951Z,5
2022-11-20T09:30:00.441Z,6
2022-11-20T09:31:03.067Z,7
2022-11-20T09:32:05.666Z,7
2022-11-20T09:33:08.506Z,7
2022-11-20T09:34:11.154Z,7
2022-11-20T09:35:13.758Z,7
2022-11-20T09:36:16.393Z,7
2022-11-20T09:37:19.059Z,7
2022-11-20T09:38:21.751Z,7
2022-11-20T09:39:24.865Z,7
2022-11-20T09:40:27.655Z,7
2022-11-20T09:41:30.283Z,7
2022-11-20T09:42:32.903Z,11
2022-11-20T09:43:38.747Z,26
2022-11-20T09:44:45.816Z,39
2022-11-20T09:45:48.467Z,37
2022-11-20T09:46:51.084Z,30
2022-11-20T09:47:53.720Z,23
2022-11-20T09:48:56.366Z,17
2022-11-20T09:49:59.032Z,11
2022-11-20T09:51:03.176Z,10
2022-11-20T09:52:05.648Z,10
2022-11-20T09:53:12.849Z,13
2022-11-20T09:54:15.172Z,13
2022-11-20T09:55:17.797Z,11
2022-11-20T09:56:22.937Z,11
2022-11-20T09:57:26.152Z,11
2022-11-20T09:58:29.263Z,13
2022-11-20T09:59:31.882Z,19
2022-11-20T10:00:34.650Z,19
2022-11-20T10:01:37.526Z,17
2022-11-20T10:02:40.216Z,14
2022-11-20T10:03:42.879Z,17
2022-11-20T10:04:45.530Z,18
2022-11-20T10:05:48.174Z,20
2022-11-20T10:07:10.380Z,20
2022-11-20T10:08:12.924Z,21
2022-11-20T10:09:15.678Z,20
2022-11-20T10:10:18.482Z,17
2022-11-20T10:11:22.108Z,17
2022-11-20T10:12:24.763Z,16
2022-11-20T10:13:27.399Z,15
2022-11-20T10:14:30.083Z,17
2022-11-20T10:15:36.220Z,17
2022-11-20T10:16:41.506Z,13
2022-11-20T10:17:47.210Z,13
2022-11-20T10:18:53.280Z,13
2022-11-20T10:19:55.698Z,13
2022-11-20T10:20:58.337Z,13
2022-11-20T10:22:01.017Z,11
2022-11-20T10:23:03.702Z,10
2022-11-20T10:24:06.364Z,11
2022-11-20T10:25:10.018Z,8
2022-11-20T10:26:12.654Z,7
2022-11-20T10:27:15.593Z,7
2022-11-20T10:28:18.183Z,7
2022-11-20T10:29:20.928Z,7
2022-11-20T10:30:23.583Z,8
2022-11-20T10:31:26.193Z,7
2022-11-20T10:32:28.927Z,7
2022-11-20T10:33:50.347Z,8
2022-11-20T10:34:53.463Z,8
2022-11-20T10:35:56.149Z,8
2022-11-20T10:36:58.814Z,7
2022-11-20T10:38:01.483Z,7
2022-11-20T10:39:04.135Z,7
2022-11-20T10:40:06.861Z,7
2022-11-20T10:41:09.753Z,6
2022-11-20T10:42:12.304Z,7
2022-11-20T10:43:14.999Z,7
2022-11-20T10:44:17.663Z,7
2022-11-20T10:45:20.552Z,7
2022-11-20T10:46:23.422Z,7
2022-11-20T10:47:26.122Z,7
2022-11-20T10:48:40.318Z,6
2022-11-20T10:49:45.185Z,7
2022-11-20T10:50:50.236Z,7
2022-11-20T10:51:52.854Z,7
2022-11-20T10:52:55.478Z,7
2022-11-20T10:53:58.127Z,8
2022-11-20T10:55:00.788Z,11
2022-11-20T10:56:03.489Z,11
2022-11-20T10:58:00.097Z,10
2022-11-20T10:59:01.892Z,8
2022-11-20T11:00:07.887Z,8
2022-11-20T11:01:10.313Z,8
2022-11-20T11:02:13.026Z,8
2022-11-20T11:03:15.630Z,9
2022-11-20T11:04:18.268Z,8
2022-11-20T11:05:20.930Z,6
2022-11-20T11:06:23.600Z,6
2022-11-20T11:07:26.346Z,5
2022-11-20T11:08:29.360Z,5
2022-11-20T11:09:31.989Z,7
2022-11-20T11:10:34.674Z,11
2022-11-20T11:11:37.845Z,10
2022-11-20T11:12:40.420Z,9
2022-11-20T11:13:43.100Z,10
2022-11-20T11:14:45.720Z,8
2022-11-20T11:15:48.403Z,7
2022-11-20T11:16:51.052Z,7
2022-11-20T11:17:53.692Z,7
2022-11-20T11:18:56.361Z,6
2022-11-20T11:19:59.007Z,5
2022-11-20T11:21:01.677Z,5
2022-11-20T11:22:04.393Z,6
2022-11-20T11:23:07.026Z,8
2022-11-20T11:24:35.081Z,8
2022-11-20T11:25:31.529Z,8
2022-11-20T11:26:34.114Z,6
2022-11-20T11:27:36.769Z,7
2022-11-20T11:28:39.433Z,6
2022-11-20T11:29:42.102Z,7
2022-11-20T11:30:45.333Z,6
2022-11-20T11:31:47.968Z,7
2022-11-20T11:32:50.676Z,5
2022-11-20T11:33:53.305Z,6
2022-11-20T11:34:55.986Z,7
2022-11-20T11:35:58.652Z,7
2022-11-20T11:37:01.925Z,5
2022-11-20T11:38:04.541Z,5
2022-11-20T11:39:07.208Z,4
2022-11-20T11:40:30.073Z,5
2022-11-20T11:41:27.470Z,6
2022-11-20T11:42:30.113Z,6
2022-11-20T11:43:38.013Z,5
2022-11-20T11:44:40.705Z,4
2022-11-20T11:45:43.322Z,4
2022-11-20T11:46:45.992Z,4
2022-11-20T11:47:48.606Z,4
2022-11-20T11:48:51.281Z,5
2022-11-20T11:49:53.926Z,4
2022-11-20T11:50:56.621Z,4
2022-11-20T11:51:59.371Z,5
2022-11-20T11:53:02.032Z,6
2022-11-20T11:54:04.664Z,6
2022-11-20T11:55:11.965Z,6
2022-11-20T11:56:14.355Z,6
2022-11-20T11:57:17.006Z,4
2022-11-20T11:58:19.640Z,4
2022-11-20T11:59:22.816Z,3
2022-11-20T12:00:26.087Z,2
2022-11-20T12:01:28.796Z,3
2022-11-20T12:02:31.537Z,3
2022-11-20T12:03:34.259Z,4
2022-11-20T12:04:37.474Z,4
2022-11-20T12:05:40.207Z,4
2022-11-20T12:06:42.845Z,5
2022-11-20T12:07:47.937Z,5
2022-11-20T12:08:50.901Z,4
2022-11-20T12:09:53.570Z,4
2022-11-20T12:10:56.221Z,4
2022-11-20T12:11:58.865Z,4
2022-11-20T12:13:01.589Z,5
2022-11-20T12:14:04.253Z,6
2022-11-20T12:15:10.465Z,6
2022-11-20T12:16:12.857Z,6
2022-11-20T12:17:15.497Z,5
2022-11-20T12:18:18.114Z,4
2022-11-20T12:19:22.266Z,4
2022-11-20T12:20:25.779Z,3
2022-11-20T12:21:28.881Z,3
2022-11-20T12:22:31.479Z,3
2022-11-20T12:23:36.551Z,4
2022-11-20T12:24:39.173Z,4
2022-11-20T12:25:41.807Z,4
2022-11-20T12:26:44.454Z,4
2022-11-20T12:27:47.112Z,4
2022-11-20T12:28:49.764Z,5
2022-11-20T12:31:23.500Z,5
2022-11-20T12:32:30.348Z,5
2022-11-20T12:33:32.770Z,6
2022-11-20T12:34:35.426Z,6
2022-11-20T12:35:38.128Z,6
2022-11-20T12:36:40.789Z,5
2022-11-20T12:37:43.426Z,5
2022-11-20T12:39:38.117Z,4
2022-11-20T12:40:39.911Z,3
2022-11-20T12:41:42.446Z,3
2022-11-20T12:42:45.057Z,3
2022-11-20T12:43:47.639Z,3
2022-11-20T12:44:50.238Z,3
2022-11-20T12:45:56.419Z,3
2022-11-20T12:46:58.793Z,3
2022-11-20T12:48:01.559Z,3
2022-11-20T12:49:16.724Z,3
2022-11-20T12:51:00.595Z,3
2022-11-20T12:52:02.404Z,3
2022-11-20T12:53:04.935Z,4
2022-11-20T12:54:08.593Z,4
2022-11-20T12:55:11.148Z,4
2022-11-20T12:56:13.816Z,5
2022-11-20T12:57:16.451Z,6
2022-11-20T12:58:19.085Z,5
2022-11-20T12:59:23.706Z,4
2022-11-20T13:00:27.279Z,4
2022-11-20T13:01:29.966Z,4
2022-11-20T13:02:32.794Z,4
2022-11-20T13:03:35.423Z,4
2022-11-20T13:04:38.108Z,5
2022-11-20T13:05:40.732Z,7
2022-11-20T13:06:43.341Z,6
2022-11-20T13:07:46.088Z,6
2022-11-20T13:08:48.902Z,5
2022-11-20T13:09:51.606Z,4
2022-11-20T13:10:54.231Z,4
2022-11-20T13:11:56.854Z,5
2022-11-20T13:12:59.540Z,4
2022-11-20T13:14:02.267Z,4
2022-11-20T13:15:04.928Z,4
2022-11-20T13:16:07.613Z,5
2022-11-20T13:17:10.247Z,6
2022-11-20T13:18:12.942Z,4
2022-11-20T13:19:15.575Z,5
2022-11-20T13:20:18.270Z,4
2022-11-20T13:21:20.895Z,6
2022-11-20T13:22:23.541Z,4
2022-11-20T13:23:26.422Z,4
2022-11-20T13:24:54.571Z,4
2022-11-20T13:25:55.557Z,4
2022-11-20T13:26:58.195Z,4
2022-11-20T13:28:00.834Z,4
2022-11-20T13:29:03.487Z,4
2022-11-20T13:30:06.319Z,4
2022-11-20T13:31:09.117Z,4
2022-11-20T13:32:11.659Z,4
2022-11-20T13:33:21.842Z,4
2022-11-20T13:34:25.060Z,4
2022-11-20T13:35:28.235Z,4
2022-11-20T13:36:30.847Z,4
2022-11-20T13:37:33.501Z,3
2022-11-20T13:38:36.199Z,3
2022-11-20T13:39:38.857Z,3
2022-11-20T13:40:41.499Z,4
2022-11-20T13:41:54.177Z,6
2022-11-20T13:42:56.396Z,6
2022-11-20T13:43:59.061Z,4
2022-11-20T13:45:01.967Z,4
2022-11-20T13:46:04.543Z,6
2022-11-20T13:47:07.201Z,7
2022-11-20T13:48:09.851Z,10
2022-11-20T13:49:12.482Z,13
2022-11-20T13:50:15.163Z,14
2022-11-20T13:51:17.789Z,15
2022-11-20T13:52:20.429Z,13
2022-11-20T13:53:23.073Z,13
2022-11-20T13:54:26.049Z,11
2022-11-20T13:55:28.717Z,12
2022-11-20T13:56:31.377Z,13
2022-11-20T13:57:34.050Z,16
2022-11-20T13:58:36.681Z,14
2022-11-20T13:59:39.331Z,11
2022-11-20T14:00:42.087Z,8
2022-11-20T14:01:44.967Z,7
2022-11-20T14:02:47.812Z,6
2022-11-20T14:04:10.878Z,4
2022-11-20T14:05:09.200Z,4
2022-11-20T14:06:11.812Z,4
2022-11-20T14:07:14.510Z,4
2022-11-20T14:08:17.306Z,4
2022-11-20T14:09:19.918Z,4
2022-11-20T14:10:32.841Z,4
2022-11-20T14:11:35.067Z,6
2022-11-20T14:12:37.695Z,4
2022-11-20T14:13:40.379Z,4
2022-11-20T14:14:43.014Z,6
2022-11-20T14:15:45.674Z,8
2022-11-20T14:16:48.284Z,8
2022-11-20T14:17:51.114Z,7
2022-11-20T14:18:53.758Z,7
2022-11-20T14:19:56.412Z,7
2022-11-20T14:20:59.091Z,7
2022-11-20T14:22:04.324Z,6
2022-11-20T14:23:06.712Z,5
2022-11-20T14:24:09.326Z,5
2022-11-20T14:25:11.950Z,4
2022-11-20T14:26:14.614Z,4
2022-11-20T14:27:17.277Z,3
2022-11-20T14:28:19.910Z,4
2022-11-20T14:29:22.579Z,4
2022-11-20T14:30:25.202Z,4
2022-11-20T14:31:27.844Z,4
2022-11-20T14:32:30.515Z,4
2022-11-20T14:33:33.135Z,4
2022-11-20T14:34:35.854Z,4
2022-11-20T14:35:38.512Z,4
2022-11-20T14:36:41.127Z,4
2022-11-20T14:37:43.725Z,5
2022-11-20T14:38:46.371Z,4
2022-11-20T14:39:49.030Z,4
2022-11-20T14:40:51.707Z,4
2022-11-20T14:41:55.347Z,4
2022-11-20T14:42:58.015Z,4
2022-11-20T14:44:00.672Z,4
2022-11-20T14:45:03.597Z,4
2022-11-20T14:46:06.276Z,4
2022-11-20T14:47:08.966Z,4
2022-11-20T14:48:11.643Z,4
2022-11-20T14:49:14.311Z,4
2022-11-20T14:50:16.956Z,4
2022-11-20T14:51:19.637Z,4
2022-11-20T14:52:22.260Z,4
2022-11-20T14:53:24.910Z,4
2022-11-20T14:54:28.573Z,4
2022-11-20T14:55:31.184Z,4
2022-11-20T14:56:33.820Z,4
2022-11-20T14:57:39.948Z,7
2022-11-20T14:58:42.369Z,7
2022-11-20T14:59:45.166Z,5
2022-11-20T15:00:47.961Z,6
2022-11-20T15:01:50.565Z,4
2022-11-20T15:02:53.199Z,4
2022-11-20T15:03:55.953Z,4
2022-11-20T15:04:59.282Z,6
2022-11-20T15:06:01.890Z,6
2022-11-20T15:07:04.665Z,5
2022-11-20T15:08:07.378Z,6
2022-11-20T15:09:10.026Z,8
2022-11-20T15:10:12.641Z,7
2022-11-20T15:11:15.400Z,7
2022-11-20T15:12:18.275Z,5
2022-11-20T15:13:20.887Z,4
2022-11-20T15:14:23.889Z,4
2022-11-20T15:15:27.824Z,4
2022-11-20T15:16:30.486Z,6
2022-11-20T15:17:33.110Z,5
2022-11-20T15:18:35.758Z,4
2022-11-20T15:19:38.371Z,6
2022-11-20T15:20:41.051Z,6
2022-11-20T15:21:43.712Z,5
2022-11-20T15:22:46.356Z,4
2022-11-20T15:23:49.018Z,4
2022-11-20T15:24:51.614Z,4
2022-11-20T15:25:54.283Z,4
2022-11-20T15:26:56.913Z,4
2022-11-20T15:27:59.537Z,4
2022-11-20T15:29:03.172Z,9
2022-11-20T15:30:05.689Z,13
2022-11-20T15:31:08.352Z,10
2022-11-20T15:32:13.992Z,7
2022-11-20T15:33:16.408Z,5
2022-11-20T15:34:19.053Z,6